createdAt,value
2023-02-25T00:09:57.660Z,5.60
2023-02-25T00:20:01.005Z,6.20
2023-02-25T00:30:05.731Z,4.90
2023-02-25T00:40:16.704Z,4.30
2023-02-25T00:50:19.890Z,4.40
2023-02-25T01:00:25.676Z,3.70
2023-02-25T01:10:28.940Z,3.30
2023-02-25T01:20:32.108Z,3.50
2023-02-25T01:30:38.480Z,3.80
2023-02-25T01:40:41.817Z,3.50
2023-02-25T01:50:52.059Z,3.30
2023-02-25T02:00:56.084Z,1.60
2023-02-25T02:10:59.391Z,1.50
2023-02-25T02:21:44.562Z,1.80
2023-02-25T02:32:10.768Z,2.10
2023-02-25T02:42:37.907Z,1.80
2023-02-25T02:52:46.873Z,1.70
2023-02-25T03:03:00.730Z,1.10
2023-02-25T03:13:04.819Z,0.80
2023-02-25T03:23:15.591Z,0.70
2023-02-25T03:33:33.248Z,0.60
2023-02-25T03:43:42.148Z,0.90
2023-02-25T03:53:45.581Z,0.70
2023-02-25T04:03:55.053Z,0.60
2023-02-25T04:13:59.038Z,1.40
2023-02-25T04:24:05.804Z,0.90
2023-02-25T04:34:08.964Z,1.60
2023-02-25T04:44:12.570Z,2.00
2023-02-25T04:54:15.957Z,2.20
2023-02-25T05:04:19.086Z,2.70
2023-02-25T05:14:22.373Z,5.10
2023-02-25T05:24:26.466Z,6.70
2023-02-25T05:34:30.670Z,7.30
2023-02-25T05:44:34.152Z,6.40
2023-02-25T05:54:37.282Z,6.00
2023-02-25T06:04:40.397Z,5.80
2023-02-25T06:14:43.555Z,4.70
2023-02-25T06:24:46.959Z,4.90
2023-02-25T06:34:50.060Z,5.00
2023-02-25T06:44:53.322Z,4.80
2023-02-25T06:54:56.512Z,5.10
2023-02-25T07:05:01.474Z,4.20
2023-02-25T07:15:05.566Z,3.90
2023-02-25T07:25:11.995Z,3.80
2023-02-25T07:35:15.364Z,3.70
2023-02-25T07:45:19.605Z,2.90
2023-02-25T07:55:23.939Z,3.00
2023-02-25T08:05:27.186Z,2.90
2023-02-25T08:15:30.444Z,3.30
2023-02-25T08:25:35.847Z,2.90
2023-02-25T08:35:39.210Z,2.20
2023-02-25T08:45:43.665Z,2.10
2023-02-25T08:55:47.530Z,1.60
2023-02-25T09:05:55.350Z,1.50
2023-02-25T09:16:03.642Z,1.00
2023-02-25T09:26:10.029Z,1.00
2023-02-25T09:36:17.385Z,1.10
2023-02-25T09:46:23.408Z,1.00
2023-02-25T09:56:27.751Z,2.00
2023-02-25T10:06:39.289Z,1.40
2023-02-25T10:17:09.114Z,1.10
2023-02-25T10:27:21.902Z,1.10
2023-02-25T10:37:34.146Z,1.30
2023-02-25T10:47:40.873Z,1.30
2023-02-25T10:57:45.404Z,1.40
2023-02-25T11:07:50.381Z,1.90
2023-02-25T11:18:02.754Z,1.10
2023-02-25T11:28:16.497Z,1.40
2023-02-25T11:38:28.413Z,1.60
2023-02-25T11:48:54.781Z,1.40
2023-02-25T11:59:29.318Z,2.40
2023-02-25T12:10:06.265Z,2.10
2023-02-25T12:20:51.307Z,1.70
2023-02-25T12:31:20.436Z,1.90
2023-02-25T12:41:54.778Z,1.90
2023-02-25T12:52:17.716Z,1.40
2023-02-25T13:02:42.052Z,1.20
2023-02-25T13:12:58.923Z,1.20
2023-02-25T13:23:17.699Z,1.60
2023-02-25T13:33:59.879Z,1.30
2023-02-25T13:44:15.239Z,1.60
2023-02-25T13:54:37.637Z,1.60
2023-02-25T14:05:04.663Z,1.90
2023-02-25T14:15:41.130Z,2.20
2023-02-25T14:26:02.880Z,2.70
2023-02-25T14:36:20.627Z,4.10
2023-02-25T14:46:43.148Z,4.10
2023-02-25T14:56:49.085Z,8.20
2023-02-25T15:07:20.805Z,6.50
2023-02-25T15:17:33.209Z,4.00
2023-02-25T15:27:36.482Z,3.60
2023-02-25T15:37:54.771Z,4.30
2023-02-25T15:48:28.579Z,6.90
2023-02-25T15:58:31.990Z,5.30
2023-02-25T16:08:47.477Z,4.80
2023-02-25T16:18:53.287Z,2.80
2023-02-25T16:29:38.625Z,3.40
2023-02-25T16:39:43.500Z,5.50
2023-02-25T16:49:47.811Z,5.20
2023-02-25T17:00:07.062Z,6.60
2023-02-25T17:10:26.001Z,7.90
2023-02-25T17:20:29.666Z,10.80
2023-02-25T17:30:34.084Z,11.60
2023-02-25T17:40:37.506Z,11.50
2023-02-25T17:50:40.807Z,7.10
2023-02-25T18:00:59.003Z,8.90
2023-02-25T18:11:37.089Z,7.00
2023-02-25T18:21:42.880Z,6.60
2023-02-25T18:31:46.130Z,4.60
2023-02-25T18:41:52.353Z,4.00
2023-02-25T18:51:55.686Z,5.40
2023-02-25T19:02:02.192Z,7.70
2023-02-25T19:12:05.947Z,4.70
2023-02-25T19:22:16.502Z,4.80
2023-02-25T19:32:21.659Z,5.80
2023-02-25T19:42:24.819Z,7.10
2023-02-25T19:52:29.617Z,6.20
2023-02-25T20:02:32.913Z,6.10
2023-02-25T20:12:37.208Z,6.60
2023-02-25T20:22:43.324Z,5.00
2023-02-25T20:32:46.876Z,4.70
2023-02-25T20:42:50.148Z,4.40
2023-02-25T20:52:53.466Z,5.50
2023-02-25T21:03:00.713Z,4.60
2023-02-25T21:13:03.989Z,5.90
2023-02-25T21:23:11.201Z,4.70
2023-02-25T21:33:15.232Z,5.10
2023-02-25T21:43:18.553Z,3.70
2023-02-25T21:53:23.480Z,4.80
2023-02-25T22:03:28.041Z,4.40
2023-02-25T22:13:35.342Z,4.70
2023-02-25T22:23:40.200Z,4.60
2023-02-25T22:33:45.345Z,4.30
2023-02-25T22:43:52.098Z,4.40
2023-02-25T22:53:56.078Z,4.80
2023-02-25T23:04:00.355Z,5.20
2023-02-25T23:14:04.050Z,5.10
2023-02-25T23:24:16.520Z,2.90
2023-02-25T23:44:25.409Z,4.70
2023-02-25T23:54:28.714Z,5.20
